Ecover Of Skagen — MPYW3 — position and weather

sailwx.info

Track history (hours):
 
Tides and Currents Weather Stations Pressure Air Temp Water Temp Dewpoint Dewpoint Depression Visibility Wind Speed Wind Dir Waves Ship Positions

Ecover Of Skagen

Last reported at 2018-Jun-16 10:25 UTC. Time now 2018-Jun-22 15:00 UTC.
Position N 14°05' W 060°58'.

Length 20 m; draft 3 m.

Type: Sailing vessel. MMSI: 233033000.

Date/timePositionNaut miles runAvg speedWind from/ knotsBaromVisibWave heightAir tempDewpointWater temp
2018-Jun-16 10:25N 14°05' W 060°58'0 0.0
2018-Jun-16 09:56N 14°05' W 060°58'0 0.0
2018-Jun-16 09:26N 14°05' W 060°58'0 0.0
2018-Jun-16 08:56N 14°05' W 060°58'0 0.0
2018-Jun-16 08:26N 14°05' W 060°58'0 0.0
2018-Jun-16 07:57N 14°05' W 060°58'0 0.0
2018-Jun-16 07:26N 14°05' W 060°58'0 0.0
2018-Jun-16 04:37N 14°05' W 060°58'0 0.0
2018-Jun-16 04:27N 14°05' W 060°58'0 0.0
2018-Jun-16 03:51N 14°05' W 060°58'2 1.8
2018-Jun-16 02:38N 14°06' W 060°60'0 2.8
2018-Jun-16 02:29N 14°07' W 060°60'2 3.0
2018-Jun-16 01:47N 14°08' W 061°01'0 0.9
2018-Jun-16 01:20N 14°08' W 061°02'1 1.6
2018-Jun-16 00:53N 14°07' W 061°02'1 3.8
2018-Jun-16 00:30N 14°09' W 061°03'2 3.9
2018-Jun-16 00:00N 14°10' W 061°04'3 6.1
2018-Jun-15 23:30N 14°12' W 061°06'3 5.8
2018-Jun-15 22:59N 14°15' W 061°08'3 6.4
2018-Jun-15 22:30N 14°17' W 061°09'1 2.1
2018-Jun-15 21:59N 14°18' W 061°10'5 9.6
2018-Jun-15 21:29N 14°22' W 061°13'7 7.9
2018-Jun-15 20:34N 14°29' W 061°16'1 7.9
2018-Jun-15 20:28N 14°29' W 061°17'4 7.9
2018-Jun-15 20:00N 14°33' W 061°18'4 7.5
2018-Jun-15 19:29N 14°36' W 061°21'5 7.2
2018-Jun-15 18:48N 14°39' W 061°24'  
Track history (hours):
 
Tides and Currents Weather Stations Pressure Air Temp Water Temp Dewpoint Dewpoint Depression Visibility Wind Speed Wind Dir Waves Ship Positions

Ecover Of Skagen

Last reported at 2018-Jun-16 10:25 UTC. Time now 2018-Jun-22 15:00 UTC.
Position N 14°05' W 060°58'.

Length 20 m; draft 3 m.

Type: Sailing vessel. MMSI: 233033000.

Date/timePositionNaut miles runAvg speedWind from/ knotsBaromVisibWave heightAir tempDewpointWater temp
2018-Jun-16 10:25N 14°05' W 060°58'0 0.0
2018-Jun-16 09:56N 14°05' W 060°58'0 0.0
2018-Jun-16 09:26N 14°05' W 060°58'0 0.0
2018-Jun-16 08:56N 14°05' W 060°58'0 0.0
2018-Jun-16 08:26N 14°05' W 060°58'0 0.0
2018-Jun-16 07:57N 14°05' W 060°58'0 0.0
2018-Jun-16 07:26N 14°05' W 060°58'0 0.0
2018-Jun-16 04:37N 14°05' W 060°58'0 0.0
2018-Jun-16 04:27N 14°05' W 060°58'0 0.0
2018-Jun-16 03:51N 14°05' W 060°58'2 1.8
2018-Jun-16 02:38N 14°06' W 060°60'0 2.8
2018-Jun-16 02:29N 14°07' W 060°60'2 3.0
2018-Jun-16 01:47N 14°08' W 061°01'0 0.9
2018-Jun-16 01:20N 14°08' W 061°02'1 1.6
2018-Jun-16 00:53N 14°07' W 061°02'1 3.8
2018-Jun-16 00:30N 14°09' W 061°03'2 3.9
2018-Jun-16 00:00N 14°10' W 061°04'3 6.1
2018-Jun-15 23:30N 14°12' W 061°06'3 5.8
2018-Jun-15 22:59N 14°15' W 061°08'3 6.4
2018-Jun-15 22:30N 14°17' W 061°09'1 2.1
2018-Jun-15 21:59N 14°18' W 061°10'5 9.6
2018-Jun-15 21:29N 14°22' W 061°13'7 7.9
2018-Jun-15 20:34N 14°29' W 061°16'1 7.9
2018-Jun-15 20:28N 14°29' W 061°17'4 7.9
2018-Jun-15 20:00N 14°33' W 061°18'4 7.5
2018-Jun-15 19:29N 14°36' W 061°21'5 7.2
2018-Jun-15 18:48N 14°39' W 061°24'  

Dump ship's entire track history